Time;durP1;ratioP1;P1;durP2;ratioP2;P2;SDS_P1;SDS_P2;PMS_P1;PMS_P2;Temp;Humidity;BMP_temperature;BMP_pressure;BME280_temperature;BME280_humidity;BME280_pressure;Samples;Min_cycle;Max_cycle;Signal;HPM_P1;HPM_P2
2021/01/19 00:00:29;;;;;;;5.57;4.07;;;6.2;99.9;;;;;;;;;
2021/01/19 00:01:02;;;;;;;5.57;4.07;;;6.2;99.9;;;;;;;;;
2021/01/19 00:02:02;;;;;;;6.83;3.47;;;6.1;99.9;;;;;;;;;
2021/01/19 00:02:42;;;;;;;6.33;4.17;;;6.1;99.9;;;;;;;;;
2021/01/19 00:03:02;;;;;;;6.33;4.17;;;6.1;99.9;;;;;;;;;
2021/01/19 00:03:12;;;;;;;6.33;4.17;;;6.1;99.9;;;;;;;;;
2021/01/19 00:04:02;;;;;;;4.2;2.77;;;6;99.9;;;;;;;;;
2021/01/19 00:04:14;;;;;;;4.2;2.77;;;6;99.9;;;;;;;;;
2021/01/19 00:04:55;;;;;;;6.17;3.63;;;6;99.9;;;;;;;;;
2021/01/19 00:05:02;;;;;;;6.17;3.63;;;6;99.9;;;;;;;;;
2021/01/19 00:05:16;;;;;;;6.17;3.63;;;6;99.9;;;;;;;;;
2021/01/19 00:05:26;;;;;;;6.07;4.1;;;6;99.9;;;;;;;;;
2021/01/19 00:06:02;;;;;;;6.07;4.1;;;6;99.9;;;;;;;;;
2021/01/19 00:06:17;;;;;;;6.07;4.1;;;6;99.9;;;;;;;;;
2021/01/19 00:06:27;;;;;;;5.47;3.93;;;6;99.9;;;;;;;;;
2021/01/19 00:07:02;;;;;;;5.47;3.93;;;6;99.9;;;;;;;;;
2021/01/19 00:07:08;;;;;;;5.47;3.93;;;6;99.9;;;;;;;;;
2021/01/19 00:07:13;;;;;;;5.47;3.93;;;6;99.9;;;;;;;;;
2021/01/19 00:07:28;;;;;;;6.23;3.93;;;6;99.9;;;;;;;;;
2021/01/19 00:07:39;;;;;;;6.23;3.93;;;6;99.9;;;;;;;;;
2021/01/19 00:08:02;;;;;;;6.23;3.93;;;6;99.9;;;;;;;;;
2021/01/19 00:08:15;;;;;;;6.23;3.93;;;6;99.9;;;;;;;;;
2021/01/19 00:08:31;;;;;;;5.97;3.63;;;6;99.9;;;;;;;;;
2021/01/19 00:08:40;;;;;;;5.97;3.63;;;6;99.9;;;;;;;;;
2021/01/19 00:09:02;;;;;;;5.97;3.63;;;6;99.9;;;;;;;;;
2021/01/19 00:09:16;;;;;;;5.97;3.63;;;6;99.9;;;;;;;;;
2021/01/19 00:09:26;;;;;;;6.33;3.7;;;6;99.9;;;;;;;;;
2021/01/19 00:09:41;;;;;;;6.33;3.7;;;6;99.9;;;;;;;;;
2021/01/19 00:09:52;;;;;;;6.33;3.7;;;6;99.9;;;;;;;;;
2021/01/19 00:10:02;;;;;;;6.33;3.7;;;6;99.9;;;;;;;;;
2021/01/19 00:10:12;;;;;;;6.33;3.7;;;6;99.9;;;;;;;;;
2021/01/19 00:10:28;;;;;;;8.07;3.83;;;5.9;99.9;;;;;;;;;
2021/01/19 00:10:43;;;;;;;8.07;3.83;;;5.9;99.9;;;;;;;;;
2021/01/19 00:10:53;;;;;;;8.07;3.83;;;5.9;99.9;;;;;;;;;
2021/01/19 00:11:02;;;;;;;8.07;3.83;;;5.9;99.9;;;;;;;;;
2021/01/19 00:11:14;;;;;;;8.07;3.83;;;5.9;99.9;;;;;;;;;
2021/01/19 00:11:29;;;;;;;7.13;3.93;;;5.9;99.9;;;;;;;;;
2021/01/19 00:11:39;;;;;;;7.13;3.93;;;5.9;99.9;;;;;;;;;
2021/01/19 00:11:55;;;;;;;7.13;3.93;;;5.9;99.9;;;;;;;;;
2021/01/19 00:12:02;;;;;;;7.13;3.93;;;5.9;99.9;;;;;;;;;
2021/01/19 00:12:05;;;;;;;7.13;3.93;;;5.9;99.9;;;;;;;;;
2021/01/19 00:12:15;;;;;;;7.13;3.93;;;5.9;99.9;;;;;;;;;
2021/01/19 00:12:25;;;;;;;7.13;3.93;;;5.9;99.9;;;;;;;;;
2021/01/19 00:12:41;;;;;;;7.5;4.07;;;6;99.9;;;;;;;;;
2021/01/19 00:12:57;;;;;;;7.5;4.07;;;6;99.9;;;;;;;;;
2021/01/19 00:13:02;;;;;;;7.5;4.07;;;6;99.9;;;;;;;;;
2021/01/19 00:13:06;;;;;;;7.5;4.07;;;6;99.9;;;;;;;;;
2021/01/19 00:13:20;;;;;;;7.5;4.07;;;6;99.9;;;;;;;;;
2021/01/19 00:13:27;;;;;;;9.2;4.53;;;6;99.9;;;;;;;;;
2021/01/19 00:13:42;;;;;;;9.2;4.53;;;6;99.9;;;;;;;;;
2021/01/19 00:13:52;;;;;;;9.2;4.53;;;6;99.9;;;;;;;;;
2021/01/19 00:14:02;;;;;;;9.2;4.53;;;6;99.9;;;;;;;;;
2021/01/19 00:14:08;;;;;;;9.2;4.53;;;6;99.9;;;;;;;;;
2021/01/19 00:14:13;;;;;;;9.2;4.53;;;6;99.9;;;;;;;;;
2021/01/19 00:14:28;;;;;;;7.27;4.47;;;6;99.9;;;;;;;;;
2021/01/19 00:14:39;;;;;;;7.27;4.47;;;6;99.9;;;;;;;;;
2021/01/19 00:14:54;;;;;;;7.27;4.47;;;6;99.9;;;;;;;;;
2021/01/19 00:15:03;;;;;;;7.27;4.47;;;6;99.9;;;;;;;;;
2021/01/19 00:15:09;;;;;;;7.27;4.47;;;6;99.9;;;;;;;;;
2021/01/19 00:15:14;;;;;;;7.27;4.47;;;6;99.9;;;;;;;;;
2021/01/19 00:15:30;;;;;;;5.1;4.27;;;6.1;99.9;;;;;;;;;
2021/01/19 00:15:40;;;;;;;5.1;4.27;;;6.1;99.9;;;;;;;;;
2021/01/19 00:15:55;;;;;;;5.1;4.27;;;6.1;99.9;;;;;;;;;
2021/01/19 00:16:02;;;;;;;5.1;4.27;;;6.1;99.9;;;;;;;;;
2021/01/19 00:16:06;;;;;;;5.1;4.27;;;6.1;99.9;;;;;;;;;
2021/01/19 00:16:16;;;;;;;5.1;4.27;;;6.1;99.9;;;;;;;;;
2021/01/19 00:16:26;;;;;;;5.1;4.27;;;6.1;99.9;;;;;;;;;
2021/01/19 00:16:41;;;;;;;7.37;3.87;;;6;99.9;;;;;;;;;
2021/01/19 00:16:52;;;;;;;7.37;3.87;;;6;99.9;;;;;;;;;
2021/01/19 00:17:02;;;;;;;7.37;3.87;;;6;99.9;;;;;;;;;
2021/01/19 00:17:07;;;;;;;7.37;3.87;;;6;99.9;;;;;;;;;
2021/01/19 00:17:17;;;;;;;7.37;3.87;;;6;99.9;;;;;;;;;
2021/01/19 00:17:27;;;;;;;9.93;4.4;;;6;99.9;;;;;;;;;
2021/01/19 00:17:43;;;;;;;9.93;4.4;;;6;99.9;;;;;;;;;
2021/01/19 00:17:53;;;;;;;9.93;4.4;;;6;99.9;;;;;;;;;
2021/01/19 00:18:02;;;;;;;9.93;4.4;;;6;99.9;;;;;;;;;
2021/01/19 00:18:08;;;;;;;9.93;4.4;;;6;99.9;;;;;;;;;
2021/01/19 00:18:14;;;;;;;9.93;4.4;;;6;99.9;;;;;;;;;
2021/01/19 00:18:29;;;;;;;6.13;4.33;;;6;99.9;;;;;;;;;
2021/01/19 00:18:39;;;;;;;6.13;4.33;;;6;99.9;;;;;;;;;
2021/01/19 00:18:55;;;;;;;6.13;4.33;;;6;99.9;;;;;;;;;
2021/01/19 00:19:02;;;;;;;6.13;4.33;;;6;99.9;;;;;;;;;
2021/01/19 00:19:05;;;;;;;6.13;4.33;;;6;99.9;;;;;;;;;
2021/01/19 00:19:15;;;;;;;6.13;4.33;;;6;99.9;;;;;;;;;
2021/01/19 00:19:30;;;;;;;5.53;4;;;6;99.9;;;;;;;;;
2021/01/19 00:19:41;;;;;;;5.53;4;;;6;99.9;;;;;;;;;
2021/01/19 00:19:56;;;;;;;5.53;4;;;6;99.9;;;;;;;;;
2021/01/19 00:20:02;;;;;;;5.53;4;;;6;99.9;;;;;;;;;
2021/01/19 00:20:06;;;;;;;5.53;4;;;6;99.9;;;;;;;;;
2021/01/19 00:20:16;;;;;;;5.53;4;;;6;99.9;;;;;;;;;
2021/01/19 00:20:27;;;;;;;5.53;4;;;6;99.9;;;;;;;;;
2021/01/19 00:20:42;;;;;;;5;3.9;;;6;99.9;;;;;;;;;
2021/01/19 00:20:52;;;;;;;5;3.9;;;6;99.9;;;;;;;;;
2021/01/19 00:21:02;;;;;;;5;3.9;;;6;99.9;;;;;;;;;
2021/01/19 00:21:08;;;;;;;5;3.9;;;6;99.9;;;;;;;;;
2021/01/19 00:21:13;;;;;;;5;3.9;;;6;99.9;;;;;;;;;
2021/01/19 00:21:28;;;;;;;5;3.9;;;6;99.9;;;;;;;;;
2021/01/19 00:21:44;;;;;;;7.13;4.17;;;6.1;99.9;;;;;;;;;
2021/01/19 00:21:54;;;;;;;7.13;4.17;;;6.1;99.9;;;;;;;;;
2021/01/19 00:22:01;;;;;;;7.13;4.17;;;6.1;99.9;;;;;;;;;
2021/01/19 00:22:09;;;;;;;7.13;4.17;;;6.1;99.9;;;;;;;;;
2021/01/19 00:22:14;;;;;;;7.13;4.17;;;6.1;99.9;;;;;;;;;
2021/01/19 00:22:30;;;;;;;5.93;4.13;;;6.1;99.9;;;;;;;;;
2021/01/19 00:22:40;;;;;;;5.93;4.13;;;6.1;99.9;;;;;;;;;
2021/01/19 00:22:55;;;;;;;5.93;4.13;;;6.1;99.9;;;;;;;;;
2021/01/19 00:23:02;;;;;;;5.93;4.13;;;6.1;99.9;;;;;;;;;
2021/01/19 00:23:05;;;;;;;5.93;4.13;;;6.1;99.9;;;;;;;;;
2021/01/19 00:23:16;;;;;;;5.93;4.13;;;6.1;99.9;;;;;;;;;
2021/01/19 00:23:26;;;;;;;5.93;4.13;;;6.1;99.9;;;;;;;;;
2021/01/19 00:23:41;;;;;;;5.3;4.03;;;6.1;99.9;;;;;;;;;
2021/01/19 00:23:57;;;;;;;5.3;4.03;;;6.1;99.9;;;;;;;;;
2021/01/19 00:24:01;;;;;;;5.3;4.03;;;6.1;99.9;;;;;;;;;
2021/01/19 00:24:07;;;;;;;5.3;4.03;;;6.1;99.9;;;;;;;;;
2021/01/19 00:24:12;;;;;;;5.3;4.03;;;6.1;99.9;;;;;;;;;
2021/01/19 00:24:27;;;;;;;5.3;4.03;;;6.1;99.9;;;;;;;;;
2021/01/19 00:24:43;;;;;;;6.13;4.1;;;6.2;99.9;;;;;;;;;
2021/01/19 00:24:53;;;;;;;6.13;4.1;;;6.2;99.9;;;;;;;;;
2021/01/19 00:25:02;;;;;;;6.13;4.1;;;6.2;99.9;;;;;;;;;
2021/01/19 00:25:08;;;;;;;6.13;4.1;;;6.2;99.9;;;;;;;;;
2021/01/19 00:25:13;;;;;;;6.13;4.1;;;6.2;99.9;;;;;;;;;
2021/01/19 00:25:29;;;;;;;6.13;4.1;;;6.2;99.9;;;;;;;;;
2021/01/19 00:25:39;;;;;;;5.83;4.47;;;6.1;99.9;;;;;;;;;
2021/01/19 00:25:54;;;;;;;5.83;4.47;;;6.1;99.9;;;;;;;;;
2021/01/19 00:26:02;;;;;;;5.83;4.47;;;6.1;99.9;;;;;;;;;
2021/01/19 00:26:10;;;;;;;5.83;4.47;;;6.1;99.9;;;;;;;;;
2021/01/19 00:26:15;;;;;;;5.83;4.47;;;6.1;99.9;;;;;;;;;
2021/01/19 00:26:25;;;;;;;5.83;4.47;;;6.1;99.9;;;;;;;;;
2021/01/19 00:26:41;;;;;;;7.63;4.57;;;6.1;99.9;;;;;;;;;
2021/01/19 00:26:57;;;;;;;7.63;4.57;;;6.1;99.9;;;;;;;;;
2021/01/19 00:27:02;;;;;;;7.63;4.57;;;6.1;99.9;;;;;;;;;
2021/01/19 00:27:06;;;;;;;7.63;4.57;;;6.1;99.9;;;;;;;;;
2021/01/19 00:27:16;;;;;;;7.63;4.57;;;6.1;99.9;;;;;;;;;
2021/01/19 00:27:26;;;;;;;7.63;4.57;;;6.1;99.9;;;;;;;;;
2021/01/19 00:27:42;;;;;;;6.4;4.33;;;6.1;99.9;;;;;;;;;
2021/01/19 00:27:52;;;;;;;6.4;4.33;;;6.1;99.9;;;;;;;;;
2021/01/19 00:28:02;;;;;;;6.4;4.33;;;6.1;99.9;;;;;;;;;
2021/01/19 00:28:08;;;;;;;6.4;4.33;;;6.1;99.9;;;;;;;;;
2021/01/19 00:28:13;;;;;;;6.4;4.33;;;6.1;99.9;;;;;;;;;
2021/01/19 00:28:28;;;;;;;6.4;4.33;;;6.1;99.9;;;;;;;;;
2021/01/19 00:28:38;;;;;;;7.9;5.43;;;6;99.9;;;;;;;;;
2021/01/19 00:28:54;;;;;;;7.9;5.43;;;6;99.9;;;;;;;;;
2021/01/19 00:29:01;;;;;;;7.9;5.43;;;6;99.9;;;;;;;;;
2021/01/19 00:29:09;;;;;;;7.9;5.43;;;6;99.9;;;;;;;;;
2021/01/19 00:29:14;;;;;;;7.9;5.43;;;6;99.9;;;;;;;;;
2021/01/19 00:29:29;;;;;;;7.9;5.43;;;6;99.9;;;;;;;;;
2021/01/19 00:29:40;;;;;;;6.87;4.87;;;6;99.9;;;;;;;;;
2021/01/19 00:29:55;;;;;;;6.87;4.87;;;6;99.9;;;;;;;;;
2021/01/19 00:30:02;;;;;;;6.87;4.87;;;6;99.9;;;;;;;;;
2021/01/19 00:30:05;;;;;;;6.87;4.87;;;6;99.9;;;;;;;;;
2021/01/19 00:30:16;;;;;;;6.87;4.87;;;6;99.9;;;;;;;;;
2021/01/19 00:30:26;;;;;;;6.87;4.87;;;6;99.9;;;;;;;;;
2021/01/19 00:30:41;;;;;;;5.23;4.73;;;6;99.9;;;;;;;;;
2021/01/19 00:30:51;;;;;;;5.23;4.73;;;6;99.9;;;;;;;;;
2021/01/19 00:31:02;;;;;;;5.23;4.73;;;6;99.9;;;;;;;;;
2021/01/19 00:31:08;;;;;;;5.23;4.73;;;6;99.9;;;;;;;;;
2021/01/19 00:31:12;;;;;;;5.23;4.73;;;6;99.9;;;;;;;;;
2021/01/19 00:31:27;;;;;;;5.23;4.73;;;6;99.9;;;;;;;;;
2021/01/19 00:31:42;;;;;;;7.17;4.9;;;6;99.9;;;;;;;;;
2021/01/19 00:31:53;;;;;;;7.17;4.9;;;6;99.9;;;;;;;;;
2021/01/19 00:32:02;;;;;;;7.17;4.9;;;6;99.9;;;;;;;;;
2021/01/19 00:32:08;;;;;;;7.17;4.9;;;6;99.9;;;;;;;;;
2021/01/19 00:32:18;;;;;;;7.17;4.9;;;6;99.9;;;;;;;;;
2021/01/19 00:32:29;;;;;;;7.17;4.9;;;6;99.9;;;;;;;;;
2021/01/19 00:32:39;;;;;;;8.33;4.93;;;6;99.9;;;;;;;;;
2021/01/19 00:32:54;;;;;;;8.33;4.93;;;6;99.9;;;;;;;;;
2021/01/19 00:33:02;;;;;;;8.33;4.93;;;6;99.9;;;;;;;;;
2021/01/19 00:33:05;;;;;;;8.33;4.93;;;6;99.9;;;;;;;;;
2021/01/19 00:33:15;;;;;;;8.33;4.93;;;6;99.9;;;;;;;;;
2021/01/19 00:33:25;;;;;;;8.33;4.93;;;6;99.9;;;;;;;;;
2021/01/19 00:33:40;;;;;;;6.8;4.47;;;6;99.9;;;;;;;;;
2021/01/19 00:33:56;;;;;;;6.8;4.47;;;6;99.9;;;;;;;;;
2021/01/19 00:34:01;;;;;;;6.8;4.47;;;6;99.9;;;;;;;;;
2021/01/19 00:34:06;;;;;;;6.8;4.47;;;6;99.9;;;;;;;;;
2021/01/19 00:34:16;;;;;;;6.8;4.47;;;6;99.9;;;;;;;;;
2021/01/19 00:34:32;;;;;;;6.8;4.47;;;6;99.9;;;;;;;;;
2021/01/19 00:34:42;;;;;;;4.9;4.13;;;6;99.9;;;;;;;;;
2021/01/19 00:34:52;;;;;;;4.9;4.13;;;6;99.9;;;;;;;;;
2021/01/19 00:35:02;;;;;;;4.9;4.13;;;6;99.9;;;;;;;;;
2021/01/19 00:35:07;;;;;;;4.9;4.13;;;6;99.9;;;;;;;;;
2021/01/19 00:35:12;;;;;;;4.9;4.13;;;6;99.9;;;;;;;;;
2021/01/19 00:35:28;;;;;;;4.9;4.13;;;6;99.9;;;;;;;;;
2021/01/19 00:35:40;;;;;;;7.63;5.13;;;6;99.9;;;;;;;;;
2021/01/19 00:35:53;;;;;;;7.63;5.13;;;6;99.9;;;;;;;;;
2021/01/19 00:36:02;;;;;;;7.63;5.13;;;6;99.9;;;;;;;;;
2021/01/19 00:36:09;;;;;;;7.63;5.13;;;6;99.9;;;;;;;;;
2021/01/19 00:36:14;;;;;;;7.63;5.13;;;6;99.9;;;;;;;;;
2021/01/19 00:36:29;;;;;;;7.63;5.13;;;6;99.9;;;;;;;;;
2021/01/19 00:36:45;;;;;;;5.8;4.6;;;6;99.9;;;;;;;;;
2021/01/19 00:36:55;;;;;;;5.8;4.6;;;6;99.9;;;;;;;;;
2021/01/19 00:37:02;;;;;;;5.8;4.6;;;6;99.9;;;;;;;;;
2021/01/19 00:37:05;;;;;;;5.8;4.6;;;6;99.9;;;;;;;;;
2021/01/19 00:37:15;;;;;;;5.8;4.6;;;6;99.9;;;;;;;;;
2021/01/19 00:37:26;;;;;;;5.8;4.6;;;6;99.9;;;;;;;;;
2021/01/19 00:37:41;;;;;;;5.83;5;;;5.9;99.9;;;;;;;;;
2021/01/19 00:37:51;;;;;;;5.83;5;;;5.9;99.9;;;;;;;;;
2021/01/19 00:38:02;;;;;;;5.83;5;;;5.9;99.9;;;;;;;;;
2021/01/19 00:38:06;;;;;;;5.83;5;;;5.9;99.9;;;;;;;;;
2021/01/19 00:38:17;;;;;;;5.83;5;;;5.9;99.9;;;;;;;;;
2021/01/19 00:38:27;;;;;;;5.83;5;;;5.9;99.9;;;;;;;;;
2021/01/19 00:38:42;;;;;;;8.1;5.1;;;5.9;99.9;;;;;;;;;
2021/01/19 00:38:58;;;;;;;8.1;5.1;;;5.9;99.9;;;;;;;;;
2021/01/19 00:39:01;;;;;;;8.1;5.1;;;5.9;99.9;;;;;;;;;
2021/01/19 00:39:08;;;;;;;8.1;5.1;;;5.9;99.9;;;;;;;;;
2021/01/19 00:39:16;;;;;;;8.1;5.1;;;5.9;99.9;;;;;;;;;
2021/01/19 00:39:29;;;;;;;8.1;5.1;;;5.9;99.9;;;;;;;;;
2021/01/19 00:39:39;;;;;;;7.07;5.3;;;5.9;99.9;;;;;;;;;
2021/01/19 00:39:54;;;;;;;7.07;5.3;;;5.9;99.9;;;;;;;;;
2021/01/19 00:40:02;;;;;;;7.07;5.3;;;5.9;99.9;;;;;;;;;
2021/01/19 00:40:04;;;;;;;7.07;5.3;;;5.9;99.9;;;;;;;;;
2021/01/19 00:40:15;;;;;;;7.07;5.3;;;5.9;99.9;;;;;;;;;
2021/01/19 00:40:30;;;;;;;7.07;5.3;;;5.9;99.9;;;;;;;;;
2021/01/19 00:40:40;;;;;;;6.73;4.93;;;5.9;99.9;;;;;;;;;
2021/01/19 00:40:56;;;;;;;6.73;4.93;;;5.9;99.9;;;;;;;;;
2021/01/19 00:41:02;;;;;;;6.73;4.93;;;5.9;99.9;;;;;;;;;
2021/01/19 00:41:11;;;;;;;6.73;4.93;;;5.9;99.9;;;;;;;;;
2021/01/19 00:41:16;;;;;;;6.73;4.93;;;5.9;99.9;;;;;;;;;
2021/01/19 00:41:26;;;;;;;6.73;4.93;;;5.9;99.9;;;;;;;;;
2021/01/19 00:41:42;;;;;;;7.53;5.13;;;5.9;99.9;;;;;;;;;
2021/01/19 00:41:52;;;;;;;7.53;5.13;;;5.9;99.9;;;;;;;;;
2021/01/19 00:42:02;;;;;;;7.53;5.13;;;5.9;99.9;;;;;;;;;
2021/01/19 00:42:07;;;;;;;7.53;5.13;;;5.9;99.9;;;;;;;;;
2021/01/19 00:42:17;;;;;;;7.53;5.13;;;5.9;99.9;;;;;;;;;
2021/01/19 00:42:28;;;;;;;7.53;5.13;;;5.9;99.9;;;;;;;;;
2021/01/19 00:42:43;;;;;;;7.8;5.1;;;6;99.9;;;;;;;;;
2021/01/19 00:42:53;;;;;;;7.8;5.1;;;6;99.9;;;;;;;;;
2021/01/19 00:43:02;;;;;;;7.8;5.1;;;6;99.9;;;;;;;;;
2021/01/19 00:43:09;;;;;;;7.8;5.1;;;6;99.9;;;;;;;;;
2021/01/19 00:43:14;;;;;;;7.8;5.1;;;6;99.9;;;;;;;;;
2021/01/19 00:43:29;;;;;;;7.8;5.1;;;6;99.9;;;;;;;;;
2021/01/19 00:43:39;;;;;;;5.73;4.67;;;6;99.9;;;;;;;;;
2021/01/19 00:43:55;;;;;;;5.73;4.67;;;6;99.9;;;;;;;;;
2021/01/19 00:44:02;;;;;;;5.73;4.67;;;6;99.9;;;;;;;;;
2021/01/19 00:44:05;;;;;;;5.73;4.67;;;6;99.9;;;;;;;;;
2021/01/19 00:44:15;;;;;;;5.73;4.67;;;6;99.9;;;;;;;;;
2021/01/19 00:44:30;;;;;;;5.73;4.67;;;6;99.9;;;;;;;;;
2021/01/19 00:44:41;;;;;;;8.33;5.27;;;6;99.9;;;;;;;;;
2021/01/19 00:44:56;;;;;;;8.33;5.27;;;6;99.9;;;;;;;;;
2021/01/19 00:45:02;;;;;;;8.33;5.27;;;6;99.9;;;;;;;;;
2021/01/19 00:45:07;;;;;;;8.33;5.27;;;6;99.9;;;;;;;;;
2021/01/19 00:45:17;;;;;;;8.33;5.27;;;6;99.9;;;;;;;;;
2021/01/19 00:45:27;;;;;;;8.33;5.27;;;6;99.9;;;;;;;;;
2021/01/19 00:45:42;;;;;;;6.13;4.67;;;5.9;99.9;;;;;;;;;
2021/01/19 00:45:52;;;;;;;6.13;4.67;;;5.9;99.9;;;;;;;;;
2021/01/19 00:46:01;;;;;;;6.13;4.67;;;5.9;99.9;;;;;;;;;
2021/01/19 00:46:08;;;;;;;6.13;4.67;;;5.9;99.9;;;;;;;;;
2021/01/19 00:46:13;;;;;;;6.13;4.67;;;5.9;99.9;;;;;;;;;
2021/01/19 00:46:28;;;;;;;6.13;4.67;;;5.9;99.9;;;;;;;;;
2021/01/19 00:46:44;;;;;;;6.8;5.37;;;5.9;99.9;;;;;;;;;
2021/01/19 00:46:54;;;;;;;6.8;5.37;;;5.9;99.9;;;;;;;;;
2021/01/19 00:47:02;;;;;;;6.8;5.37;;;5.9;99.9;;;;;;;;;
2021/01/19 00:47:09;;;;;;;6.8;5.37;;;5.9;99.9;;;;;;;;;
2021/01/19 00:47:14;;;;;;;6.8;5.37;;;5.9;99.9;;;;;;;;;
2021/01/19 00:47:30;;;;;;;6.8;5.37;;;5.9;99.9;;;;;;;;;
2021/01/19 00:47:45;;;;;;;7.47;5.1;;;5.8;99.9;;;;;;;;;
2021/01/19 00:47:55;;;;;;;7.47;5.1;;;5.8;99.9;;;;;;;;;
2021/01/19 00:48:02;;;;;;;7.47;5.1;;;5.8;99.9;;;;;;;;;
2021/01/19 00:48:06;;;;;;;7.47;5.1;;;5.8;99.9;;;;;;;;;
2021/01/19 00:48:16;;;;;;;7.47;5.1;;;5.8;99.9;;;;;;;;;
2021/01/19 00:48:26;;;;;;;7.47;5.1;;;5.8;99.9;;;;;;;;;
2021/01/19 00:48:42;;;;;;;8.47;5.23;;;5.9;99.9;;;;;;;;;
2021/01/19 00:48:57;;;;;;;8.47;5.23;;;5.9;99.9;;;;;;;;;
2021/01/19 00:49:02;;;;;;;8.47;5.23;;;5.9;99.9;;;;;;;;;
2021/01/19 00:49:07;;;;;;;8.47;5.23;;;5.9;99.9;;;;;;;;;
2021/01/19 00:49:12;;;;;;;8.47;5.23;;;5.9;99.9;;;;;;;;;
2021/01/19 00:49:28;;;;;;;8.47;5.23;;;5.9;99.9;;;;;;;;;
2021/01/19 00:49:43;;;;;;;6.7;5.2;;;5.9;99.9;;;;;;;;;
2021/01/19 00:49:58;;;;;;;6.7;5.2;;;5.9;99.9;;;;;;;;;
2021/01/19 00:50:02;;;;;;;6.7;5.2;;;5.9;99.9;;;;;;;;;
2021/01/19 00:50:08;;;;;;;6.7;5.2;;;5.9;99.9;;;;;;;;;
2021/01/19 00:50:14;;;;;;;6.7;5.2;;;5.9;99.9;;;;;;;;;
2021/01/19 00:50:31;;;;;;;6.7;5.2;;;5.9;99.9;;;;;;;;;
2021/01/19 00:50:39;;;;;;;8.87;5.77;;;5.9;99.9;;;;;;;;;
2021/01/19 00:50:54;;;;;;;8.87;5.77;;;5.9;99.9;;;;;;;;;
2021/01/19 00:51:02;;;;;;;8.87;5.77;;;5.9;99.9;;;;;;;;;
2021/01/19 00:51:10;;;;;;;8.87;5.77;;;5.9;99.9;;;;;;;;;
2021/01/19 00:51:15;;;;;;;8.87;5.77;;;5.9;99.9;;;;;;;;;
2021/01/19 00:51:25;;;;;;;8.87;5.77;;;5.9;99.9;;;;;;;;;
2021/01/19 00:51:41;;;;;;;7.5;5.4;;;5.9;99.9;;;;;;;;;
2021/01/19 00:51:56;;;;;;;7.5;5.4;;;5.9;99.9;;;;;;;;;
2021/01/19 00:52:02;;;;;;;7.5;5.4;;;5.9;99.9;;;;;;;;;
2021/01/19 00:52:12;;;;;;;7.5;5.4;;;5.9;99.9;;;;;;;;;
2021/01/19 00:52:16;;;;;;;7.5;5.4;;;5.9;99.9;;;;;;;;;
2021/01/19 00:52:27;;;;;;;7.5;5.4;;;5.9;99.9;;;;;;;;;
2021/01/19 00:52:42;;;;;;;9.97;5.67;;;5.9;99.9;;;;;;;;;
2021/01/19 00:52:52;;;;;;;9.97;5.67;;;5.9;99.9;;;;;;;;;
2021/01/19 00:53:02;;;;;;;9.97;5.67;;;5.9;99.9;;;;;;;;;
2021/01/19 00:53:08;;;;;;;9.97;5.67;;;5.9;99.9;;;;;;;;;
2021/01/19 00:53:13;;;;;;;9.97;5.67;;;5.9;99.9;;;;;;;;;
2021/01/19 00:53:28;;;;;;;9.97;5.67;;;5.9;99.9;;;;;;;;;
2021/01/19 00:53:43;;;;;;;9.1;4.8;;;6;99.9;;;;;;;;;
2021/01/19 00:53:54;;;;;;;9.1;4.8;;;6;99.9;;;;;;;;;
2021/01/19 00:54:02;;;;;;;9.1;4.8;;;6;99.9;;;;;;;;;
2021/01/19 00:54:11;;;;;;;9.1;4.8;;;6;99.9;;;;;;;;;
2021/01/19 00:54:15;;;;;;;9.1;4.8;;;6;99.9;;;;;;;;;
2021/01/19 00:54:29;;;;;;;9.1;4.8;;;6;99.9;;;;;;;;;
2021/01/19 00:54:40;;;;;;;8.97;4.3;;;5.9;99.9;;;;;;;;;
2021/01/19 00:54:56;;;;;;;8.97;4.3;;;5.9;99.9;;;;;;;;;
2021/01/19 00:55:02;;;;;;;8.97;4.3;;;5.9;99.9;;;;;;;;;
2021/01/19 00:55:05;;;;;;;8.97;4.3;;;5.9;99.9;;;;;;;;;
2021/01/19 00:55:16;;;;;;;8.97;4.3;;;5.9;99.9;;;;;;;;;
2021/01/19 00:55:26;;;;;;;8.97;4.3;;;5.9;99.9;;;;;;;;;
2021/01/19 00:55:41;;;;;;;10;5.17;;;5.8;99.9;;;;;;;;;
2021/01/19 00:55:57;;;;;;;10;5.17;;;5.8;99.9;;;;;;;;;
2021/01/19 00:56:01;;;;;;;10;5.17;;;5.8;99.9;;;;;;;;;
2021/01/19 00:56:07;;;;;;;10;5.17;;;5.8;99.9;;;;;;;;;
2021/01/19 00:56:17;;;;;;;10;5.17;;;5.8;99.9;;;;;;;;;
2021/01/19 00:56:27;;;;;;;10;5.17;;;5.8;99.9;;;;;;;;;
2021/01/19 00:56:43;;;;;;;7.87;5;;;5.9;99.9;;;;;;;;;
2021/01/19 00:56:53;;;;;;;7.87;5;;;5.9;99.9;;;;;;;;;
2021/01/19 00:57:02;;;;;;;7.87;5;;;5.9;99.9;;;;;;;;;
2021/01/19 00:57:08;;;;;;;7.87;5;;;5.9;99.9;;;;;;;;;
2021/01/19 00:57:13;;;;;;;7.87;5;;;5.9;99.9;;;;;;;;;
2021/01/19 00:57:29;;;;;;;7.87;5;;;5.9;99.9;;;;;;;;;
2021/01/19 00:57:40;;;;;;;10.4;5.47;;;6;99.9;;;;;;;;;
2021/01/19 00:57:54;;;;;;;10.4;5.47;;;6;99.9;;;;;;;;;
2021/01/19 00:58:02;;;;;;;10.4;5.47;;;6;99.9;;;;;;;;;
2021/01/19 00:58:10;;;;;;;10.4;5.47;;;6;99.9;;;;;;;;;
2021/01/19 00:58:15;;;;;;;10.4;5.47;;;6;99.9;;;;;;;;;
2021/01/19 00:58:30;;;;;;;10.4;5.47;;;6;99.9;;;;;;;;;
2021/01/19 00:58:51;;;;;;;7.13;5.33;;;6;99.9;;;;;;;;;
2021/01/19 00:58:56;;;;;;;7.13;5.33;;;6;99.9;;;;;;;;;
2021/01/19 00:59:02;;;;;;;7.13;5.33;;;6;99.9;;;;;;;;;
2021/01/19 00:59:06;;;;;;;7.13;5.33;;;6;99.9;;;;;;;;;
2021/01/19 00:59:16;;;;;;;7.13;5.33;;;6;99.9;;;;;;;;;
2021/01/19 00:59:27;;;;;;;7.13;5.33;;;6;99.9;;;;;;;;;
2021/01/19 00:59:42;;;;;;;8.47;4.4;;;6;99.9;;;;;;;;;
2021/01/19 00:59:52;;;;;;;8.47;4.4;;;6;99.9;;;;;;;;;
2021/01/19 01:00:02;;;;;;;8.47;4.4;;;6;99.9;;;;;;;;;
2021/01/19 01:00:07;;;;;;;8.47;4.4;;;6;99.9;;;;;;;;;
2021/01/19 01:00:18;;;;;;;8.47;4.4;;;6;99.9;;;;;;;;;
2021/01/19 01:00:34;;;;;;;8.47;4.4;;;6;99.9;;;;;;;;;
2021/01/19 01:00:43;;;;;;;11.3;5.23;;;6.1;99.9;;;;;;;;;
2021/01/19 01:01:01;;;;;;;11.3;5.23;;;6.1;99.9;;;;;;;;;
2021/01/19 01:01:04;;;;;;;11.3;5.23;;;6.1;99.9;;;;;;;;;
2021/01/19 01:01:09;;;;;;;11.3;5.23;;;6.1;99.9;;;;;;;;;
2021/01/19 01:01:14;;;;;;;11.3;5.23;;;6.1;99.9;;;;;;;;;
2021/01/19 01:01:29;;;;;;;11.3;5.23;;;6.1;99.9;;;;;;;;;
2021/01/19 01:01:40;;;;;;;11.3;5.23;;;6.1;99.9;;;;;;;;;
2021/01/19 01:01:55;;;;;;;10.57;5.5;;;6;99.9;;;;;;;;;
2021/01/19 01:02:02;;;;;;;10.57;5.5;;;6;99.9;;;;;;;;;
2021/01/19 01:02:05;;;;;;;10.57;5.5;;;6;99.9;;;;;;;;;
2021/01/19 01:02:17;;;;;;;10.57;5.5;;;6;99.9;;;;;;;;;
2021/01/19 01:02:31;;;;;;;10.57;5.5;;;6;99.9;;;;;;;;;
2021/01/19 01:02:46;;;;;;;5.4;4.87;;;6;99.9;;;;;;;;;
2021/01/19 01:02:56;;;;;;;5.4;4.87;;;6;99.9;;;;;;;;;
2021/01/19 01:03:02;;;;;;;5.4;4.87;;;6;99.9;;;;;;;;;
2021/01/19 01:03:12;;;;;;;5.4;4.87;;;6;99.9;;;;;;;;;
2021/01/19 01:03:17;;;;;;;5.4;4.87;;;6;99.9;;;;;;;;;
2021/01/19 01:03:29;;;;;;;5.4;4.87;;;6;99.9;;;;;;;;;
2021/01/19 01:03:43;;;;;;;5.97;4.7;;;6.1;99.9;;;;;;;;;
2021/01/19 01:03:58;;;;;;;5.97;4.7;;;6.1;99.9;;;;;;;;;
2021/01/19 01:04:02;;;;;;;5.97;4.7;;;6.1;99.9;;;;;;;;;
2021/01/19 01:04:08;;;;;;;5.97;4.7;;;6.1;99.9;;;;;;;;;
2021/01/19 01:04:13;;;;;;;5.97;4.7;;;6.1;99.9;;;;;;;;;
2021/01/19 01:04:29;;;;;;;5.97;4.7;;;6.1;99.9;;;;;;;;;
2021/01/19 01:04:44;;;;;;;12.33;6.13;;;6.1;99.9;;;;;;;;;
2021/01/19 01:04:59;;;;;;;12.33;6.13;;;6.1;99.9;;;;;;;;;
2021/01/19 01:05:02;;;;;;;12.33;6.13;;;6.1;99.9;;;;;;;;;
2021/01/19 01:05:10;;;;;;;12.33;6.13;;;6.1;99.9;;;;;;;;;
2021/01/19 01:05:15;;;;;;;12.33;6.13;;;6.1;99.9;;;;;;;;;
2021/01/19 01:05:25;;;;;;;12.33;6.13;;;6.1;99.9;;;;;;;;;
2021/01/19 01:05:40;;;;;;;12.33;6.13;;;6.1;99.9;;;;;;;;;
2021/01/19 01:05:56;;;;;;;7.57;4.63;;;6.1;99.9;;;;;;;;;
2021/01/19 01:06:02;;;;;;;7.57;4.63;;;6.1;99.9;;;;;;;;;
2021/01/19 01:06:11;;;;;;;7.57;4.63;;;6.1;99.9;;;;;;;;;
2021/01/19 01:06:16;;;;;;;7.57;4.63;;;6.1;99.9;;;;;;;;;
2021/01/19 01:06:26;;;;;;;7.57;4.63;;;6.1;99.9;;;;;;;;;
2021/01/19 01:06:42;;;;;;;7.73;4.77;;;6.1;99.9;;;;;;;;;
2021/01/19 01:06:57;;;;;;;7.73;4.77;;;6.1;99.9;;;;;;;;;
2021/01/19 01:07:02;;;;;;;7.73;4.77;;;6.1;99.9;;;;;;;;;
2021/01/19 01:07:12;;;;;;;7.73;4.77;;;6.1;99.9;;;;;;;;;
2021/01/19 01:07:12;;;;;;;7.73;4.77;;;6.1;99.9;;;;;;;;;
2021/01/19 01:07:28;;;;;;;7.73;4.77;;;6.1;99.9;;;;;;;;;
2021/01/19 01:07:38;;;;;;;7.73;4.77;;;6.1;99.9;;;;;;;;;
2021/01/19 01:07:54;;;;;;;9.03;4.63;;;6;99.9;;;;;;;;;
2021/01/19 01:08:02;;;;;;;9.03;4.63;;;6;99.9;;;;;;;;;
2021/01/19 01:08:09;;;;;;;9.03;4.63;;;6;99.9;;;;;;;;;
2021/01/19 01:08:14;;;;;;;9.03;4.63;;;6;99.9;;;;;;;;;
2021/01/19 01:08:29;;;;;;;9.03;4.63;;;6;99.9;;;;;;;;;
2021/01/19 01:08:39;;;;;;;9.03;4.63;;;6;99.9;;;;;;;;;
2021/01/19 01:08:55;;;;;;;7.9;4.8;;;6.1;99.9;;;;;;;;;
2021/01/19 01:09:02;;;;;;;7.9;4.8;;;6.1;99.9;;;;;;;;;
2021/01/19 01:09:10;;;;;;;7.9;4.8;;;6.1;99.9;;;;;;;;;
2021/01/19 01:09:15;;;;;;;7.9;4.8;;;6.1;99.9;;;;;;;;;
2021/01/19 01:09:26;;;;;;;7.9;4.8;;;6.1;99.9;;;;;;;;;
2021/01/19 01:09:46;;;;;;;7.77;4.9;;;6;99.9;;;;;;;;;
2021/01/19 01:09:51;;;;;;;7.77;4.9;;;6;99.9;;;;;;;;;
2021/01/19 01:10:02;;;;;;;7.77;4.9;;;6;99.9;;;;;;;;;
2021/01/19 01:10:06;;;;;;;7.77;4.9;;;6;99.9;;;;;;;;;
2021/01/19 01:10:17;;;;;;;7.77;4.9;;;6;99.9;;;;;;;;;
2021/01/19 01:10:27;;;;;;;7.77;4.9;;;6;99.9;;;;;;;;;
2021/01/19 01:10:42;;;;;;;7.77;4.9;;;6;99.9;;;;;;;;;
2021/01/19 01:10:53;;;;;;;8.8;4.57;;;6;99.9;;;;;;;;;
2021/01/19 01:11:01;;;;;;;8.8;4.57;;;6;99.9;;;;;;;;;
2021/01/19 01:11:08;;;;;;;8.8;4.57;;;6;99.9;;;;;;;;;
2021/01/19 01:11:13;;;;;;;8.8;4.57;;;6;99.9;;;;;;;;;
2021/01/19 01:11:29;;;;;;;8.8;4.57;;;6;99.9;;;;;;;;;
2021/01/19 01:11:39;;;;;;;8.8;4.57;;;6;99.9;;;;;;;;;
2021/01/19 01:11:59;;;;;;;5.13;3.73;;;6;99.9;;;;;;;;;
2021/01/19 01:12:02;;;;;;;5.13;3.73;;;6;99.9;;;;;;;;;
2021/01/19 01:12:04;;;;;;;5.13;3.73;;;6;99.9;;;;;;;;;
2021/01/19 01:12:14;;;;;;;5.13;3.73;;;6;99.9;;;;;;;;;
2021/01/19 01:12:30;;;;;;;5.13;3.73;;;6;99.9;;;;;;;;;
2021/01/19 01:12:40;;;;;;;5.13;3.73;;;6;99.9;;;;;;;;;
2021/01/19 01:12:56;;;;;;;10.4;4.57;;;6.1;99.9;;;;;;;;;
2021/01/19 01:13:02;;;;;;;10.4;4.57;;;6.1;99.9;;;;;;;;;
2021/01/19 01:13:06;;;;;;;10.4;4.57;;;6.1;99.9;;;;;;;;;
2021/01/19 01:13:17;;;;;;;10.4;4.57;;;6.1;99.9;;;;;;;;;
2021/01/19 01:13:26;;;;;;;10.4;4.57;;;6.1;99.9;;;;;;;;;
2021/01/19 01:13:47;;;;;;;7.13;4.13;;;6.2;99.9;;;;;;;;;
2021/01/19 01:13:52;;;;;;;7.13;4.13;;;6.2;99.9;;;;;;;;;
2021/01/19 01:14:02;;;;;;;7.13;4.13;;;6.2;99.9;;;;;;;;;
2021/01/19 01:14:12;;;;;;;7.13;4.13;;;6.2;99.9;;;;;;;;;
2021/01/19 01:14:19;;;;;;;7.13;4.13;;;6.2;99.9;;;;;;;;;
2021/01/19 01:14:28;;;;;;;7.13;4.13;;;6.2;99.9;;;;;;;;;
2021/01/19 01:14:43;;;;;;;7.13;4.13;;;6.2;99.9;;;;;;;;;
2021/01/19 01:14:53;;;;;;;7.53;3.9;;;6.1;99.9;;;;;;;;;
2021/01/19 01:15:02;;;;;;;7.53;3.9;;;6.1;99.9;;;;;;;;;
2021/01/19 01:15:09;;;;;;;7.53;3.9;;;6.1;99.9;;;;;;;;;
2021/01/19 01:15:14;;;;;;;7.53;3.9;;;6.1;99.9;;;;;;;;;
2021/01/19 01:15:29;;;;;;;7.53;3.9;;;6.1;99.9;;;;;;;;;
2021/01/19 01:15:40;;;;;;;7.53;3.9;;;6.1;99.9;;;;;;;;;
2021/01/19 01:16:00;;;;;;;10.97;4.53;;;6.2;99.9;;;;;;;;;
2021/01/19 01:16:02;;;;;;;10.97;4.53;;;6.2;99.9;;;;;;;;;
2021/01/19 01:16:05;;;;;;;10.97;4.53;;;6.2;99.9;;;;;;;;;
2021/01/19 01:16:15;;;;;;;10.97;4.53;;;6.2;99.9;;;;;;;;;
2021/01/19 01:16:30;;;;;;;10.97;4.53;;;6.2;99.9;;;;;;;;;
2021/01/19 01:16:41;;;;;;;10.97;4.53;;;6.2;99.9;;;;;;;;;
2021/01/19 01:16:56;;;;;;;5.57;3.53;;;6.1;99.9;;;;;;;;;
2021/01/19 01:17:02;;;;;;;5.57;3.53;;;6.1;99.9;;;;;;;;;
2021/01/19 01:17:06;;;;;;;5.57;3.53;;;6.1;99.9;;;;;;;;;
2021/01/19 01:17:17;;;;;;;5.57;3.53;;;6.1;99.9;;;;;;;;;
2021/01/19 01:17:27;;;;;;;5.57;3.53;;;6.1;99.9;;;;;;;;;
2021/01/19 01:17:42;;;;;;;5.57;3.53;;;6.1;99.9;;;;;;;;;
2021/01/19 01:17:52;;;;;;;7.47;4.27;;;6.1;99.9;;;;;;;;;
2021/01/19 01:18:01;;;;;;;7.47;4.27;;;6.1;99.9;;;;;;;;;
2021/01/19 01:18:13;;;;;;;7.47;4.27;;;6.1;99.9;;;;;;;;;